Aérodrome :
LOGIN :

S'inscrire | Disclaimer

   EN    FR    IT 

 










Légende :    VFR   VFR Marginal   IFR   IFR Intensif   IFR Très Intensif
Visi : 
Plafond : 
>= 8 km
>= 3000ft
5 à 8 km
1000 à 3000 ft
1500m à 5 km
500 à 1000 ft
800 à 1500m
200 à 500 ft
< 800m
< 200 ft
Symboles :   Orages  Brouillard  Fortes neiges  Fortes précipitations  Vent > 20 kt
SIGMETs :   Divers  Orages  Givrage  Turbulence  Onde Orograph.  Cendres Volcan.







- Altitude de l'aérodrome : 257 ft
- Code IATA : MAN
- Voir les cartes d'approche


EGCC - Manchester

DERNIER METAR :
  • 191250Z AUTO VRB05KT 9999 NCD 22/04 Q1030

METARs EXPIRÉS :
  • 191220Z AUTO VRB06KT 9999 NCD 22/05 Q1030 NOSIG
  • 191150Z AUTO 10007KT 050V160 9999 NCD 21/04 Q1030 NOSIG
  • 191120Z AUTO 09007KT 040V150 9999 NCD 21/05 Q1030
  • 191050Z AUTO 11006KT 050V190 9999 NCD 20/05 Q1030 NOSIG
  • 191020Z AUTO 11005KT 020V180 9999 NCD 20/06 Q1030 NOSIG

TAF TAF EGCC
Valide du 19 à 12h jusqu'au 20 à 18h UTC


191059Z 1912/2018 16007KT 9999 FEW045
PROB30
TEMPO 2004/2010 8000
ATIS : +44 161 499 2324
Pas de NOTAMs connus pour ce terrain.



MET'MAP, la Météo Aéronautique d'un coup d'oeil ! - Copyright ORBIFLY Décembre 2007 - Disclaimer

ORBIFLY MET'MAP TEAM :

Programmation & Développement : Alexandra Zaïnal
Conception & Développement : Baudouin d'Aumeries
Co-Programmation & Développement : Marc-Olivier Méhu
Soutien technique & logistique : Manuel Goepfert

Contact : metmap@orbifly.com




SOURCES & CREDITS :

   NOAA